sensor_id;sensor_type;location;lat;lon;timestamp;temperature;humidity
17348;DHT22;8791;50.876;4.342;2022-12-07T00:00:54;6.40;99.90
17348;DHT22;8791;50.876;4.342;2022-12-07T00:03:21;6.20;99.90
17348;DHT22;8791;50.876;4.342;2022-12-07T00:05:49;6.20;99.90
17348;DHT22;8791;50.876;4.342;2022-12-07T00:08:16;6.20;99.90
17348;DHT22;8791;50.876;4.342;2022-12-07T00:10:43;6.20;99.90
17348;DHT22;8791;50.876;4.342;2022-12-07T00:13:10;6.20;99.90
17348;DHT22;8791;50.876;4.342;2022-12-07T00:15:36;6.30;99.90
17348;DHT22;8791;50.876;4.342;2022-12-07T00:18:03;6.20;99.90
17348;DHT22;8791;50.876;4.342;2022-12-07T00:20:30;6.10;99.90
17348;DHT22;8791;50.876;4.342;2022-12-07T00:22:59;6.10;99.90
17348;DHT22;8791;50.876;4.342;2022-12-07T00:25:26;6.20;99.90
17348;DHT22;8791;50.876;4.342;2022-12-07T00:27:54;6.30;99.90
17348;DHT22;8791;50.876;4.342;2022-12-07T00:30:22;6.30;99.90
17348;DHT22;8791;50.876;4.342;2022-12-07T00:32:49;6.10;99.90
17348;DHT22;8791;50.876;4.342;2022-12-07T00:35:16;5.90;99.90
17348;DHT22;8791;50.876;4.342;2022-12-07T00:37:43;5.90;99.90
17348;DHT22;8791;50.876;4.342;2022-12-07T00:40:12;5.90;99.90
17348;DHT22;8791;50.876;4.342;2022-12-07T00:42:39;6.00;99.90
17348;DHT22;8791;50.876;4.342;2022-12-07T00:45:07;6.00;99.90
17348;DHT22;8791;50.876;4.342;2022-12-07T00:47:34;6.10;99.90
17348;DHT22;8791;50.876;4.342;2022-12-07T00:50:01;6.10;99.90
17348;DHT22;8791;50.876;4.342;2022-12-07T00:52:30;6.00;99.90
17348;DHT22;8791;50.876;4.342;2022-12-07T00:54:57;5.90;99.90
17348;DHT22;8791;50.876;4.342;2022-12-07T00:57:25;5.90;99.90
17348;DHT22;8791;50.876;4.342;2022-12-07T00:59:52;5.80;99.90
17348;DHT22;8791;50.876;4.342;2022-12-07T01:02:20;5.80;99.90
17348;DHT22;8791;50.876;4.342;2022-12-07T01:04:47;5.70;99.90
17348;DHT22;8791;50.876;4.342;2022-12-07T01:07:14;5.70;99.90
17348;DHT22;8791;50.876;4.342;2022-12-07T01:09:41;5.60;99.90
17348;DHT22;8791;50.876;4.342;2022-12-07T01:12:08;5.50;99.90
17348;DHT22;8791;50.876;4.342;2022-12-07T01:14:36;5.50;99.90
17348;DHT22;8791;50.876;4.342;2022-12-07T01:17:03;5.40;99.90
17348;DHT22;8791;50.876;4.342;2022-12-07T01:19:30;5.40;99.90
17348;DHT22;8791;50.876;4.342;2022-12-07T01:21:57;5.40;99.90
17348;DHT22;8791;50.876;4.342;2022-12-07T01:24:23;5.40;99.90
17348;DHT22;8791;50.876;4.342;2022-12-07T01:26:50;5.50;99.90
17348;DHT22;8791;50.876;4.342;2022-12-07T01:29:17;5.40;99.90
17348;DHT22;8791;50.876;4.342;2022-12-07T01:31:48;5.40;99.90
17348;DHT22;8791;50.876;4.342;2022-12-07T01:34:15;5.50;99.90
17348;DHT22;8791;50.876;4.342;2022-12-07T01:36:42;5.50;99.90
17348;DHT22;8791;50.876;4.342;2022-12-07T01:39:10;5.50;99.90
17348;DHT22;8791;50.876;4.342;2022-12-07T01:41:39;5.60;99.90
17348;DHT22;8791;50.876;4.342;2022-12-07T01:44:20;5.70;99.90
17348;DHT22;8791;50.876;4.342;2022-12-07T01:46:50;5.70;99.90
17348;DHT22;8791;50.876;4.342;2022-12-07T01:49:25;5.70;99.90
17348;DHT22;8791;50.876;4.342;2022-12-07T01:51:58;5.60;99.90
17348;DHT22;8791;50.876;4.342;2022-12-07T01:54:27;5.50;99.90
17348;DHT22;8791;50.876;4.342;2022-12-07T01:56:54;5.70;99.90
17348;DHT22;8791;50.876;4.342;2022-12-07T01:59:24;5.80;99.90
17348;DHT22;8791;50.876;4.342;2022-12-07T02:01:54;5.90;99.90
17348;DHT22;8791;50.876;4.342;2022-12-07T02:04:22;6.00;99.90
17348;DHT22;8791;50.876;4.342;2022-12-07T02:06:50;6.00;99.90
17348;DHT22;8791;50.876;4.342;2022-12-07T02:09:18;6.10;99.90
17348;DHT22;8791;50.876;4.342;2022-12-07T02:11:44;6.10;99.90
17348;DHT22;8791;50.876;4.342;2022-12-07T02:14:11;6.20;99.90
17348;DHT22;8791;50.876;4.342;2022-12-07T02:16:47;6.00;99.90
17348;DHT22;8791;50.876;4.342;2022-12-07T02:19:58;5.90;99.90
17348;DHT22;8791;50.876;4.342;2022-12-07T02:22:54;5.90;99.90
17348;DHT22;8791;50.876;4.342;2022-12-07T02:25:36;5.90;99.90
17348;DHT22;8791;50.876;4.342;2022-12-07T02:28:12;6.00;99.90
17348;DHT22;8791;50.876;4.342;2022-12-07T02:30:48;6.00;99.90
17348;DHT22;8791;50.876;4.342;2022-12-07T02:33:18;6.10;99.90
17348;DHT22;8791;50.876;4.342;2022-12-07T02:35:54;6.00;99.90
17348;DHT22;8791;50.876;4.342;2022-12-07T02:38:26;6.00;99.90
17348;DHT22;8791;50.876;4.342;2022-12-07T02:41:02;6.00;99.90
17348;DHT22;8791;50.876;4.342;2022-12-07T02:43:35;6.00;99.90
17348;DHT22;8791;50.876;4.342;2022-12-07T02:46:09;6.00;99.90
17348;DHT22;8791;50.876;4.342;2022-12-07T02:48:38;6.00;99.90
17348;DHT22;8791;50.876;4.342;2022-12-07T02:51:06;5.90;99.90
17348;DHT22;8791;50.876;4.342;2022-12-07T02:53:35;6.00;99.90
17348;DHT22;8791;50.876;4.342;2022-12-07T02:56:07;6.00;99.90
17348;DHT22;8791;50.876;4.342;2022-12-07T02:58:43;6.00;99.90
17348;DHT22;8791;50.876;4.342;2022-12-07T03:01:21;5.70;99.90
17348;DHT22;8791;50.876;4.342;2022-12-07T03:03:58;5.60;99.90
17348;DHT22;8791;50.876;4.342;2022-12-07T03:06:32;5.70;99.90
17348;DHT22;8791;50.876;4.342;2022-12-07T03:09:07;5.70;99.90
17348;DHT22;8791;50.876;4.342;2022-12-07T03:11:42;5.70;99.90
17348;DHT22;8791;50.876;4.342;2022-12-07T03:14:15;5.70;99.90
17348;DHT22;8791;50.876;4.342;2022-12-07T03:16:48;5.60;99.90
17348;DHT22;8791;50.876;4.342;2022-12-07T03:19:20;5.50;99.90
17348;DHT22;8791;50.876;4.342;2022-12-07T03:21:53;5.50;99.90
17348;DHT22;8791;50.876;4.342;2022-12-07T03:24:26;5.50;99.90
17348;DHT22;8791;50.876;4.342;2022-12-07T03:27:07;5.70;99.90
17348;DHT22;8791;50.876;4.342;2022-12-07T03:29:39;5.80;99.90
17348;DHT22;8791;50.876;4.342;2022-12-07T03:32:12;5.90;99.90
17348;DHT22;8791;50.876;4.342;2022-12-07T03:34:47;5.90;99.90
17348;DHT22;8791;50.876;4.342;2022-12-07T03:37:22;5.80;99.90
17348;DHT22;8791;50.876;4.342;2022-12-07T03:39:58;5.70;99.90
17348;DHT22;8791;50.876;4.342;2022-12-07T03:42:29;5.70;99.90
17348;DHT22;8791;50.876;4.342;2022-12-07T03:44:56;5.60;99.90
17348;DHT22;8791;50.876;4.342;2022-12-07T03:47:29;5.50;99.90
17348;DHT22;8791;50.876;4.342;2022-12-07T03:50:02;5.40;99.90
17348;DHT22;8791;50.876;4.342;2022-12-07T03:52:37;5.30;99.90
17348;DHT22;8791;50.876;4.342;2022-12-07T03:55:10;5.20;99.90
17348;DHT22;8791;50.876;4.342;2022-12-07T03:57:39;5.40;99.90
17348;DHT22;8791;50.876;4.342;2022-12-07T04:00:08;5.40;99.90
17348;DHT22;8791;50.876;4.342;2022-12-07T04:02:37;5.40;99.90
17348;DHT22;8791;50.876;4.342;2022-12-07T04:05:10;5.50;99.90
17348;DHT22;8791;50.876;4.342;2022-12-07T04:07:37;5.60;99.90
17348;DHT22;8791;50.876;4.342;2022-12-07T04:10:05;5.40;99.90
17348;DHT22;8791;50.876;4.342;2022-12-07T04:12:32;5.30;99.90
17348;DHT22;8791;50.876;4.342;2022-12-07T04:14:59;5.30;99.90
17348;DHT22;8791;50.876;4.342;2022-12-07T04:17:26;5.30;99.90
17348;DHT22;8791;50.876;4.342;2022-12-07T04:19:54;5.20;99.90
17348;DHT22;8791;50.876;4.342;2022-12-07T04:22:21;5.00;99.90
17348;DHT22;8791;50.876;4.342;2022-12-07T04:24:48;4.90;99.90
17348;DHT22;8791;50.876;4.342;2022-12-07T04:27:15;4.90;99.90
17348;DHT22;8791;50.876;4.342;2022-12-07T04:29:42;4.90;99.90
17348;DHT22;8791;50.876;4.342;2022-12-07T04:32:08;5.00;99.90
17348;DHT22;8791;50.876;4.342;2022-12-07T04:34:35;5.00;99.90
17348;DHT22;8791;50.876;4.342;2022-12-07T04:37:03;5.10;99.90
17348;DHT22;8791;50.876;4.342;2022-12-07T04:39:32;5.10;99.90
17348;DHT22;8791;50.876;4.342;2022-12-07T04:42:00;5.20;99.90
17348;DHT22;8791;50.876;4.342;2022-12-07T04:44:28;5.20;99.90
17348;DHT22;8791;50.876;4.342;2022-12-07T04:46:55;5.40;99.90
17348;DHT22;8791;50.876;4.342;2022-12-07T04:49:23;5.30;99.90
17348;DHT22;8791;50.876;4.342;2022-12-07T04:51:50;5.30;99.90
17348;DHT22;8791;50.876;4.342;2022-12-07T04:54:18;5.50;99.90
17348;DHT22;8791;50.876;4.342;2022-12-07T04:56:45;5.40;99.90
17348;DHT22;8791;50.876;4.342;2022-12-07T04:59:12;5.40;99.90
17348;DHT22;8791;50.876;4.342;2022-12-07T05:01:39;5.30;99.90
17348;DHT22;8791;50.876;4.342;2022-12-07T05:04:07;5.20;99.90
17348;DHT22;8791;50.876;4.342;2022-12-07T05:06:34;5.10;99.90
17348;DHT22;8791;50.876;4.342;2022-12-07T05:09:01;5.10;99.90
17348;DHT22;8791;50.876;4.342;2022-12-07T05:11:29;5.20;99.90
17348;DHT22;8791;50.876;4.342;2022-12-07T05:14:07;5.10;99.90
17348;DHT22;8791;50.876;4.342;2022-12-07T05:16:35;5.00;99.90
17348;DHT22;8791;50.876;4.342;2022-12-07T05:19:02;5.00;99.90
17348;DHT22;8791;50.876;4.342;2022-12-07T05:21:29;5.00;99.90
17348;DHT22;8791;50.876;4.342;2022-12-07T05:23:56;5.00;99.90
17348;DHT22;8791;50.876;4.342;2022-12-07T05:26:23;4.90;99.90
17348;DHT22;8791;50.876;4.342;2022-12-07T05:28:52;5.00;99.90
17348;DHT22;8791;50.876;4.342;2022-12-07T05:31:19;5.20;99.90
17348;DHT22;8791;50.876;4.342;2022-12-07T05:33:46;5.20;99.90
17348;DHT22;8791;50.876;4.342;2022-12-07T05:36:13;5.00;99.90
17348;DHT22;8791;50.876;4.342;2022-12-07T05:38:40;4.80;99.90
17348;DHT22;8791;50.876;4.342;2022-12-07T05:41:08;4.90;99.90
17348;DHT22;8791;50.876;4.342;2022-12-07T05:43:56;5.10;99.90
17348;DHT22;8791;50.876;4.342;2022-12-07T05:46:23;5.10;99.90
17348;DHT22;8791;50.876;4.342;2022-12-07T05:48:50;5.00;99.90
17348;DHT22;8791;50.876;4.342;2022-12-07T05:51:17;5.00;99.90
17348;DHT22;8791;50.876;4.342;2022-12-07T05:53:44;5.20;99.90
17348;DHT22;8791;50.876;4.342;2022-12-07T05:56:11;5.20;99.90
17348;DHT22;8791;50.876;4.342;2022-12-07T05:58:37;5.20;99.90
17348;DHT22;8791;50.876;4.342;2022-12-07T06:01:23;5.30;99.90
17348;DHT22;8791;50.876;4.342;2022-12-07T06:03:50;5.30;99.90
17348;DHT22;8791;50.876;4.342;2022-12-07T06:06:17;5.40;99.90
17348;DHT22;8791;50.876;4.342;2022-12-07T06:08:44;5.50;99.90
17348;DHT22;8791;50.876;4.342;2022-12-07T06:11:10;5.40;99.90
17348;DHT22;8791;50.876;4.342;2022-12-07T06:13:55;5.30;99.90
17348;DHT22;8791;50.876;4.342;2022-12-07T06:16:23;5.20;99.90
17348;DHT22;8791;50.876;4.342;2022-12-07T06:18:50;5.20;99.90
17348;DHT22;8791;50.876;4.342;2022-12-07T06:21:17;5.20;99.90
17348;DHT22;8791;50.876;4.342;2022-12-07T06:23:43;5.30;99.90
17348;DHT22;8791;50.876;4.342;2022-12-07T06:26:10;5.40;99.90
17348;DHT22;8791;50.876;4.342;2022-12-07T06:28:37;5.50;99.90
17348;DHT22;8791;50.876;4.342;2022-12-07T06:31:04;5.40;99.90
17348;DHT22;8791;50.876;4.342;2022-12-07T06:33:32;5.40;99.90
17348;DHT22;8791;50.876;4.342;2022-12-07T06:35:59;5.30;99.90
17348;DHT22;8791;50.876;4.342;2022-12-07T06:38:26;5.30;99.90
17348;DHT22;8791;50.876;4.342;2022-12-07T06:40:52;5.20;99.90
17348;DHT22;8791;50.876;4.342;2022-12-07T06:43:19;5.30;99.90
17348;DHT22;8791;50.876;4.342;2022-12-07T06:45:46;5.50;99.90
17348;DHT22;8791;50.876;4.342;2022-12-07T06:48:13;5.30;99.90
17348;DHT22;8791;50.876;4.342;2022-12-07T06:50:41;5.40;99.90
17348;DHT22;8791;50.876;4.342;2022-12-07T06:53:10;5.60;99.90
17348;DHT22;8791;50.876;4.342;2022-12-07T06:55:37;5.50;99.90
17348;DHT22;8791;50.876;4.342;2022-12-07T06:58:03;5.40;99.90
17348;DHT22;8791;50.876;4.342;2022-12-07T07:00:30;5.30;99.90
17348;DHT22;8791;50.876;4.342;2022-12-07T07:02:57;5.30;99.90
17348;DHT22;8791;50.876;4.342;2022-12-07T07:05:24;5.70;99.90
17348;DHT22;8791;50.876;4.342;2022-12-07T07:07:52;5.80;99.90
17348;DHT22;8791;50.876;4.342;2022-12-07T07:10:19;5.60;99.90
17348;DHT22;8791;50.876;4.342;2022-12-07T07:12:46;5.40;99.90
17348;DHT22;8791;50.876;4.342;2022-12-07T07:15:13;5.30;99.90
17348;DHT22;8791;50.876;4.342;2022-12-07T07:17:40;5.30;99.90
17348;DHT22;8791;50.876;4.342;2022-12-07T07:20:07;5.40;99.90
17348;DHT22;8791;50.876;4.342;2022-12-07T07:22:34;5.40;99.90
17348;DHT22;8791;50.876;4.342;2022-12-07T07:25:03;5.40;99.90
17348;DHT22;8791;50.876;4.342;2022-12-07T07:27:30;5.40;99.90
17348;DHT22;8791;50.876;4.342;2022-12-07T07:29:57;5.50;99.90
17348;DHT22;8791;50.876;4.342;2022-12-07T07:32:24;5.60;99.90
17348;DHT22;8791;50.876;4.342;2022-12-07T07:34:51;5.60;99.90
17348;DHT22;8791;50.876;4.342;2022-12-07T07:37:18;5.70;99.90
17348;DHT22;8791;50.876;4.342;2022-12-07T07:39:44;5.80;99.90
17348;DHT22;8791;50.876;4.342;2022-12-07T07:42:12;5.60;99.90
17348;DHT22;8791;50.876;4.342;2022-12-07T07:44:39;5.60;99.90
17348;DHT22;8791;50.876;4.342;2022-12-07T07:47:06;5.50;99.90
17348;DHT22;8791;50.876;4.342;2022-12-07T07:49:33;5.60;99.90
17348;DHT22;8791;50.876;4.342;2022-12-07T07:52:00;5.70;99.90
17348;DHT22;8791;50.876;4.342;2022-12-07T07:54:27;5.80;99.90
17348;DHT22;8791;50.876;4.342;2022-12-07T07:56:54;5.80;99.90
17348;DHT22;8791;50.876;4.342;2022-12-07T07:59:22;5.80;99.90
17348;DHT22;8791;50.876;4.342;2022-12-07T08:01:50;5.50;99.90
17348;DHT22;8791;50.876;4.342;2022-12-07T08:04:17;5.50;99.90
17348;DHT22;8791;50.876;4.342;2022-12-07T08:06:43;5.50;99.90
17348;DHT22;8791;50.876;4.342;2022-12-07T08:09:10;5.40;99.90
17348;DHT22;8791;50.876;4.342;2022-12-07T08:11:37;5.40;99.90
17348;DHT22;8791;50.876;4.342;2022-12-07T08:14:04;5.50;99.90
17348;DHT22;8791;50.876;4.342;2022-12-07T08:16:32;5.30;99.90
17348;DHT22;8791;50.876;4.342;2022-12-07T08:18:58;5.20;99.90
17348;DHT22;8791;50.876;4.342;2022-12-07T08:21:25;5.10;99.90
17348;DHT22;8791;50.876;4.342;2022-12-07T08:23:52;5.10;99.90
17348;DHT22;8791;50.876;4.342;2022-12-07T08:26:19;5.20;99.90
17348;DHT22;8791;50.876;4.342;2022-12-07T08:28:46;5.20;99.90
17348;DHT22;8791;50.876;4.342;2022-12-07T08:31:15;5.10;99.90
17348;DHT22;8791;50.876;4.342;2022-12-07T08:33:44;5.30;99.90
17348;DHT22;8791;50.876;4.342;2022-12-07T08:36:12;5.30;99.90
17348;DHT22;8791;50.876;4.342;2022-12-07T08:38:40;5.30;99.90
17348;DHT22;8791;50.876;4.342;2022-12-07T08:41:08;5.30;99.90
17348;DHT22;8791;50.876;4.342;2022-12-07T08:43:35;5.30;99.90
17348;DHT22;8791;50.876;4.342;2022-12-07T08:46:07;5.40;99.90
17348;DHT22;8791;50.876;4.342;2022-12-07T08:48:37;5.50;99.90
17348;DHT22;8791;50.876;4.342;2022-12-07T08:51:07;5.50;99.90
17348;DHT22;8791;50.876;4.342;2022-12-07T08:53:34;5.50;99.90
17348;DHT22;8791;50.876;4.342;2022-12-07T08:56:02;5.50;99.90
17348;DHT22;8791;50.876;4.342;2022-12-07T08:58:30;5.60;99.90
17348;DHT22;8791;50.876;4.342;2022-12-07T09:00:57;5.60;99.90
17348;DHT22;8791;50.876;4.342;2022-12-07T09:03:23;5.90;99.90
17348;DHT22;8791;50.876;4.342;2022-12-07T09:05:50;6.10;99.90
17348;DHT22;8791;50.876;4.342;2022-12-07T09:08:20;6.40;99.90
17348;DHT22;8791;50.876;4.342;2022-12-07T09:10:47;6.30;99.90
17348;DHT22;8791;50.876;4.342;2022-12-07T09:13:14;6.40;99.90
17348;DHT22;8791;50.876;4.342;2022-12-07T09:15:41;6.40;99.90
17348;DHT22;8791;50.876;4.342;2022-12-07T09:18:08;6.30;99.90
17348;DHT22;8791;50.876;4.342;2022-12-07T09:20:35;6.20;99.90
17348;DHT22;8791;50.876;4.342;2022-12-07T09:23:01;6.20;99.90
17348;DHT22;8791;50.876;4.342;2022-12-07T09:25:30;6.30;99.90
17348;DHT22;8791;50.876;4.342;2022-12-07T09:27:57;6.40;99.90
17348;DHT22;8791;50.876;4.342;2022-12-07T09:30:24;6.30;99.90
17348;DHT22;8791;50.876;4.342;2022-12-07T09:32:53;6.40;99.90
17348;DHT22;8791;50.876;4.342;2022-12-07T09:35:20;6.50;99.90
17348;DHT22;8791;50.876;4.342;2022-12-07T09:37:47;6.70;99.90
17348;DHT22;8791;50.876;4.342;2022-12-07T09:40:15;6.80;99.90
17348;DHT22;8791;50.876;4.342;2022-12-07T09:42:47;6.70;99.90
17348;DHT22;8791;50.876;4.342;2022-12-07T09:45:15;6.80;99.90
17348;DHT22;8791;50.876;4.342;2022-12-07T09:47:43;6.80;99.90
17348;DHT22;8791;50.876;4.342;2022-12-07T09:50:14;6.90;99.90
17348;DHT22;8791;50.876;4.342;2022-12-07T09:52:42;6.60;99.90
17348;DHT22;8791;50.876;4.342;2022-12-07T09:55:11;6.60;99.90
17348;DHT22;8791;50.876;4.342;2022-12-07T09:57:38;6.80;99.90
17348;DHT22;8791;50.876;4.342;2022-12-07T10:00:13;6.80;99.90
17348;DHT22;8791;50.876;4.342;2022-12-07T10:02:41;6.90;99.90
17348;DHT22;8791;50.876;4.342;2022-12-07T10:05:13;7.00;99.90
17348;DHT22;8791;50.876;4.342;2022-12-07T10:07:41;7.10;99.90
17348;DHT22;8791;50.876;4.342;2022-12-07T10:10:15;7.10;99.90
17348;DHT22;8791;50.876;4.342;2022-12-07T10:12:54;7.20;99.90
17348;DHT22;8791;50.876;4.342;2022-12-07T10:15:23;7.30;99.90
17348;DHT22;8791;50.876;4.342;2022-12-07T10:17:51;7.20;99.90
17348;DHT22;8791;50.876;4.342;2022-12-07T10:20:21;7.40;99.90
17348;DHT22;8791;50.876;4.342;2022-12-07T10:23:00;7.50;99.90
17348;DHT22;8791;50.876;4.342;2022-12-07T10:25:29;7.60;99.90
17348;DHT22;8791;50.876;4.342;2022-12-07T10:28:03;7.70;99.90
17348;DHT22;8791;50.876;4.342;2022-12-07T10:30:47;7.70;99.90
17348;DHT22;8791;50.876;4.342;2022-12-07T10:33:28;7.70;99.90
17348;DHT22;8791;50.876;4.342;2022-12-07T10:35:55;7.50;99.90
17348;DHT22;8791;50.876;4.342;2022-12-07T10:38:25;7.30;99.90
17348;DHT22;8791;50.876;4.342;2022-12-07T10:41:03;7.20;99.90
17348;DHT22;8791;50.876;4.342;2022-12-07T10:43:30;7.30;99.90
17348;DHT22;8791;50.876;4.342;2022-12-07T10:46:24;7.20;99.90
17348;DHT22;8791;50.876;4.342;2022-12-07T10:49:00;7.20;99.90
17348;DHT22;8791;50.876;4.342;2022-12-07T10:51:34;7.20;99.90
17348;DHT22;8791;50.876;4.342;2022-12-07T10:54:10;7.40;99.90
17348;DHT22;8791;50.876;4.342;2022-12-07T10:56:57;7.40;99.90
17348;DHT22;8791;50.876;4.342;2022-12-07T11:05:40;7.30;99.90
17348;DHT22;8791;50.876;4.342;2022-12-07T11:08:16;7.60;99.90
17348;DHT22;8791;50.876;4.342;2022-12-07T11:10:50;7.50;99.90
17348;DHT22;8791;50.876;4.342;2022-12-07T11:13:27;7.40;99.90
17348;DHT22;8791;50.876;4.342;2022-12-07T11:18:55;7.60;99.90
17348;DHT22;8791;50.876;4.342;2022-12-07T11:21:31;7.60;99.90
17348;DHT22;8791;50.876;4.342;2022-12-07T11:24:08;7.50;99.90
17348;DHT22;8791;50.876;4.342;2022-12-07T11:26:55;7.40;99.90
17348;DHT22;8791;50.876;4.342;2022-12-07T11:29:39;7.30;99.90
17348;DHT22;8791;50.876;4.342;2022-12-07T11:32:15;7.30;99.90
17348;DHT22;8791;50.876;4.342;2022-12-07T11:34:52;7.20;99.90
17348;DHT22;8791;50.876;4.342;2022-12-07T11:37:27;7.20;99.90
17348;DHT22;8791;50.876;4.342;2022-12-07T11:40:00;7.30;99.90
17348;DHT22;8791;50.876;4.342;2022-12-07T11:42:31;7.30;99.90
17348;DHT22;8791;50.876;4.342;2022-12-07T11:45:03;7.00;99.90
17348;DHT22;8791;50.876;4.342;2022-12-07T11:47:40;7.00;99.90
17348;DHT22;8791;50.876;4.342;2022-12-07T11:50:27;7.10;99.90
17348;DHT22;8791;50.876;4.342;2022-12-07T11:52:58;7.10;99.90
17348;DHT22;8791;50.876;4.342;2022-12-07T11:55:30;7.20;99.90
17348;DHT22;8791;50.876;4.342;2022-12-07T11:58:04;7.50;99.90
17348;DHT22;8791;50.876;4.342;2022-12-07T12:00:35;7.70;99.90
17348;DHT22;8791;50.876;4.342;2022-12-07T12:03:08;7.70;99.90
17348;DHT22;8791;50.876;4.342;2022-12-07T12:05:39;7.70;99.90
17348;DHT22;8791;50.876;4.342;2022-12-07T12:08:12;7.60;99.90
17348;DHT22;8791;50.876;4.342;2022-12-07T12:10:50;7.60;99.90
17348;DHT22;8791;50.876;4.342;2022-12-07T12:13:48;7.70;99.90
17348;DHT22;8791;50.876;4.342;2022-12-07T12:16:37;7.70;99.90
17348;DHT22;8791;50.876;4.342;2022-12-07T12:19:18;7.70;99.90
17348;DHT22;8791;50.876;4.342;2022-12-07T12:21:49;7.70;99.90
17348;DHT22;8791;50.876;4.342;2022-12-07T12:24:23;7.70;99.90
17348;DHT22;8791;50.876;4.342;2022-12-07T12:26:53;7.60;99.90
17348;DHT22;8791;50.876;4.342;2022-12-07T12:29:23;7.70;99.90
17348;DHT22;8791;50.876;4.342;2022-12-07T12:32:15;7.70;99.90
17348;DHT22;8791;50.876;4.342;2022-12-07T12:35:03;7.60;99.90
17348;DHT22;8791;50.876;4.342;2022-12-07T12:37:47;7.70;99.90
17348;DHT22;8791;50.876;4.342;2022-12-07T12:40:40;7.80;99.90
17348;DHT22;8791;50.876;4.342;2022-12-07T12:55:16;8.00;99.90
17348;DHT22;8791;50.876;4.342;2022-12-07T12:57:47;8.00;99.90
17348;DHT22;8791;50.876;4.342;2022-12-07T13:00:19;7.90;99.90
17348;DHT22;8791;50.876;4.342;2022-12-07T13:02:48;8.00;99.90
17348;DHT22;8791;50.876;4.342;2022-12-07T13:05:19;8.10;99.90
17348;DHT22;8791;50.876;4.342;2022-12-07T13:07:53;8.20;99.90
17348;DHT22;8791;50.876;4.342;2022-12-07T13:10:43;8.30;99.90
17348;DHT22;8791;50.876;4.342;2022-12-07T13:13:31;8.30;99.90
17348;DHT22;8791;50.876;4.342;2022-12-07T13:22:34;8.50;99.90
17348;DHT22;8791;50.876;4.342;2022-12-07T13:25:07;8.60;99.90
17348;DHT22;8791;50.876;4.342;2022-12-07T13:27:37;8.60;99.90
17348;DHT22;8791;50.876;4.342;2022-12-07T13:30:14;8.60;99.90
17348;DHT22;8791;50.876;4.342;2022-12-07T13:32:42;8.50;99.90
17348;DHT22;8791;50.876;4.342;2022-12-07T13:35:28;8.40;99.90
17348;DHT22;8791;50.876;4.342;2022-12-07T13:37:55;8.40;99.90
17348;DHT22;8791;50.876;4.342;2022-12-07T13:40:23;8.20;99.90
17348;DHT22;8791;50.876;4.342;2022-12-07T13:42:59;8.30;99.90
17348;DHT22;8791;50.876;4.342;2022-12-07T13:45:28;8.40;99.90
17348;DHT22;8791;50.876;4.342;2022-12-07T13:48:14;8.40;99.90
17348;DHT22;8791;50.876;4.342;2022-12-07T13:50:42;8.40;99.90
17348;DHT22;8791;50.876;4.342;2022-12-07T13:53:12;8.40;99.90
17348;DHT22;8791;50.876;4.342;2022-12-07T13:55:45;8.40;99.90
17348;DHT22;8791;50.876;4.342;2022-12-07T13:58:13;8.40;99.90
17348;DHT22;8791;50.876;4.342;2022-12-07T14:00:41;8.30;99.90
17348;DHT22;8791;50.876;4.342;2022-12-07T14:03:26;8.20;99.90
17348;DHT22;8791;50.876;4.342;2022-12-07T14:06:15;8.20;99.90
17348;DHT22;8791;50.876;4.342;2022-12-07T14:08:43;8.20;99.90
17348;DHT22;8791;50.876;4.342;2022-12-07T14:11:16;8.10;99.90
17348;DHT22;8791;50.876;4.342;2022-12-07T14:13:55;7.90;99.90
17348;DHT22;8791;50.876;4.342;2022-12-07T14:16:26;7.50;99.90
17348;DHT22;8791;50.876;4.342;2022-12-07T14:18:54;7.10;99.90
17348;DHT22;8791;50.876;4.342;2022-12-07T14:21:23;7.00;99.90
17348;DHT22;8791;50.876;4.342;2022-12-07T14:24:12;7.10;99.90
17348;DHT22;8791;50.876;4.342;2022-12-07T14:26:42;7.00;99.90
17348;DHT22;8791;50.876;4.342;2022-12-07T14:29:22;7.00;99.90
17348;DHT22;8791;50.876;4.342;2022-12-07T14:31:50;7.00;99.90
17348;DHT22;8791;50.876;4.342;2022-12-07T14:34:20;7.20;99.90
17348;DHT22;8791;50.876;4.342;2022-12-07T14:36:47;7.40;99.90
17348;DHT22;8791;50.876;4.342;2022-12-07T14:39:13;7.60;99.90
17348;DHT22;8791;50.876;4.342;2022-12-07T14:41:40;7.50;99.90
17348;DHT22;8791;50.876;4.342;2022-12-07T14:44:22;7.50;99.90
17348;DHT22;8791;50.876;4.342;2022-12-07T14:46:50;7.50;99.90
17348;DHT22;8791;50.876;4.342;2022-12-07T14:49:17;7.40;99.90
17348;DHT22;8791;50.876;4.342;2022-12-07T14:51:46;7.40;99.90
17348;DHT22;8791;50.876;4.342;2022-12-07T14:54:16;7.40;99.90
17348;DHT22;8791;50.876;4.342;2022-12-07T14:56:43;7.40;99.90
17348;DHT22;8791;50.876;4.342;2022-12-07T14:59:11;7.30;99.90
17348;DHT22;8791;50.876;4.342;2022-12-07T15:01:39;7.20;99.90
17348;DHT22;8791;50.876;4.342;2022-12-07T15:04:06;7.10;99.90
17348;DHT22;8791;50.876;4.342;2022-12-07T15:06:33;7.10;99.90
17348;DHT22;8791;50.876;4.342;2022-12-07T15:09:00;7.20;99.90
17348;DHT22;8791;50.876;4.342;2022-12-07T15:11:27;7.30;99.90
17348;DHT22;8791;50.876;4.342;2022-12-07T15:13:54;7.40;99.90
17348;DHT22;8791;50.876;4.342;2022-12-07T15:16:40;7.40;99.90
17348;DHT22;8791;50.876;4.342;2022-12-07T15:19:12;7.60;99.90
17348;DHT22;8791;50.876;4.342;2022-12-07T15:21:39;7.50;99.90
17348;DHT22;8791;50.876;4.342;2022-12-07T15:24:07;7.40;99.90
17348;DHT22;8791;50.876;4.342;2022-12-07T15:26:34;7.40;99.90
17348;DHT22;8791;50.876;4.342;2022-12-07T15:29:01;7.50;99.90
17348;DHT22;8791;50.876;4.342;2022-12-07T15:31:28;7.50;99.90
17348;DHT22;8791;50.876;4.342;2022-12-07T15:33:56;7.50;99.90
17348;DHT22;8791;50.876;4.342;2022-12-07T15:36:25;7.50;99.90
17348;DHT22;8791;50.876;4.342;2022-12-07T15:38:52;7.40;99.90
17348;DHT22;8791;50.876;4.342;2022-12-07T15:41:20;7.40;99.90
17348;DHT22;8791;50.876;4.342;2022-12-07T15:43:47;7.40;99.90
17348;DHT22;8791;50.876;4.342;2022-12-07T15:46:32;7.40;99.90
17348;DHT22;8791;50.876;4.342;2022-12-07T15:49:01;7.40;99.90
17348;DHT22;8791;50.876;4.342;2022-12-07T15:51:28;7.40;99.90
17348;DHT22;8791;50.876;4.342;2022-12-07T15:53:57;7.40;99.90
17348;DHT22;8791;50.876;4.342;2022-12-07T15:56:24;7.40;99.90
17348;DHT22;8791;50.876;4.342;2022-12-07T15:58:51;7.20;99.90
17348;DHT22;8791;50.876;4.342;2022-12-07T16:01:19;7.20;99.90
17348;DHT22;8791;50.876;4.342;2022-12-07T16:03:46;7.10;99.90
17348;DHT22;8791;50.876;4.342;2022-12-07T16:06:17;7.20;99.90
17348;DHT22;8791;50.876;4.342;2022-12-07T16:08:47;7.30;99.90
17348;DHT22;8791;50.876;4.342;2022-12-07T16:11:14;7.30;99.90
17348;DHT22;8791;50.876;4.342;2022-12-07T16:13:41;7.20;99.90
17348;DHT22;8791;50.876;4.342;2022-12-07T16:16:10;7.20;99.90
17348;DHT22;8791;50.876;4.342;2022-12-07T16:18:38;7.20;99.90
17348;DHT22;8791;50.876;4.342;2022-12-07T16:21:05;7.30;99.90
17348;DHT22;8791;50.876;4.342;2022-12-07T16:23:34;6.90;99.90
17348;DHT22;8791;50.876;4.342;2022-12-07T16:26:05;6.90;99.90
17348;DHT22;8791;50.876;4.342;2022-12-07T16:28:32;6.90;99.90
17348;DHT22;8791;50.876;4.342;2022-12-07T16:31:01;6.90;99.90
17348;DHT22;8791;50.876;4.342;2022-12-07T16:33:28;6.90;99.90
17348;DHT22;8791;50.876;4.342;2022-12-07T16:35:55;6.90;99.90
17348;DHT22;8791;50.876;4.342;2022-12-07T16:38:22;6.90;99.90
17348;DHT22;8791;50.876;4.342;2022-12-07T16:40:50;7.00;99.90
17348;DHT22;8791;50.876;4.342;2022-12-07T16:43:17;7.00;99.90
17348;DHT22;8791;50.876;4.342;2022-12-07T16:45:45;7.10;99.90
17348;DHT22;8791;50.876;4.342;2022-12-07T16:48:12;7.10;99.90
17348;DHT22;8791;50.876;4.342;2022-12-07T16:50:39;7.10;99.90